• Join FlightAware (Why Join?)
  • Login
  • US Flag 
12:31AM EST


 

Airport Tracker/Info


-or-


 

Live Flight TrackerFlight Track Log ✈ N700EG ✈ 27-Aug-2014 ✈ 1A5 - KPIE

Flight Track Log - Related Links

Times and Time Zones

All times are in EDT time to prevent confusion due to time zone crossing. See the N700EG flight status page for this flight to view local times or setup timezone preferences in your user account.

Time Position Orientation Groundspeed Altitude Reporting Facility
EDT Latitude Longitude Course Direction KTS MPH feet Rate Location/Type
03:32PM 35.1306 -83.4419 171° South 277 319 8,000  Level Atlanta Center
03:33PM 35.0825 -83.4322 171° South 225 259 9,800 1,500 Climbing Atlanta Center
03:34PM 35.0386 -83.4275 175° South 177 204 11,100 1,320 Climbing Atlanta Center
03:35PM 34.9928 -83.4278 180° South 172 198 12,500 1,200 Climbing Atlanta Center
03:36PM 34.9489 -83.4053 157° South 167 192 13,600 1,200 Climbing Atlanta Center
03:37PM 34.9028 -83.3778 154° Southeast 167 192 14,900 1,260 Climbing Atlanta Center
03:38PM 34.8608 -83.3400 144° Southeast 177 204 16,200 1,260 Climbing Atlanta Center
03:39PM 34.8169 -83.3100 151° Southeast 182 209 17,500 1,200 Climbing Atlanta Center
03:40PM 34.7750 -83.2775 148° Southeast 182 209 18,600 600 Climbing Atlanta Center
03:41PM 34.7206 -83.2553 161° South 189 217 18,800 60 Climbing Atlanta Center
03:42PM 34.6453 -83.2486 176° South 229 264 18,800 600 Level Atlanta Center
03:43PM 34.5764 -83.2442 177° South 252 290 20,000 1,020 Climbing Atlanta Center
03:44PM 34.5139 -83.2397 177° South 252 290 20,900 720 Climbing Atlanta Center
03:45PM 34.4511 -83.2353 177° South 241 277 21,500 660 Climbing Atlanta Center
03:46PM 34.3842 -83.2258 173° South 236 272 22,300 900 Climbing Atlanta Center
03:47PM 34.3236 -83.2214 177° South 230 265 23,300 780 Climbing Atlanta Center
03:48PM 34.2611 -83.2169 177° South 230 265 23,900 720 Climbing Atlanta Center
03:49PM 34.1983 -83.2100 175° South 230 265 24,800 900 Climbing Atlanta Center
03:50PM 34.1419 -83.2056 176° South 225 259 25,700 600 Climbing Atlanta Center
03:51PM 34.0814 -83.2011 177° South 220 253 26,000 120 Climbing Atlanta Center
03:52PM 34.0147 -83.1942 175° South 226 260 26,000  Level Atlanta Center
03:53PM 33.9436 -83.1900 177° South 241 277 26,000  Level Atlanta Center
03:54PM 33.8706 -83.1831 175° South 259 298 26,000  Level Atlanta Center
03:55PM 33.7975 -83.1764 176° South 264 304 26,000  Level Atlanta Center
03:56PM 33.7264 -83.1694 175° South 264 304 26,000 -60 Level Atlanta Center
03:57PM 33.6533 -83.1653 177° South 264 304 25,900  Descending Atlanta Center
03:58PM 33.5781 -83.1586 176° South 269 310 26,000  Climbing Atlanta Center
03:59PM 33.5050 -83.1494 174° South 274 315 26,000 -60 Level Atlanta Center
04:00PM 33.4319 -83.1478 179° South 268 308 25,900 -60 Descending Atlanta Center
04:01PM 33.3589 -83.1386 174° South 273 314 25,900  Level Atlanta Center
04:02PM 33.2836 -83.1342 177° South 273 314 26,000  Climbing Atlanta Center
04:03PM 33.2086 -83.1275 176° South 273 314 25,900 -60 Descending Atlanta Center
04:04PM 33.1353 -83.1208 176° South 268 308 25,900  Level Atlanta Center
04:05PM 33.0622 -83.1167 177° South 268 308 25,900  Level Atlanta Center
04:06PM 32.9914 -83.1075 174° South 268 308 25,900  Level Atlanta Center
04:07PM 32.9181 -83.0986 174° South 268 308 25,900  Level Atlanta Center
04:08PM 32.8450 -83.0944 177° South 273 314 25,900  Level Atlanta Center
04:09PM 32.7742 -83.0878 175° South 273 314 25,900  Level Atlanta Center
04:10PM 32.7031 -83.0861 179° South 268 308 26,000  Climbing Atlanta Center
04:11PM 32.6278 -83.0769 174° South 268 308 25,900  Descending Atlanta Center
04:12PM 32.5547 -83.0703 176° South 268 308 26,000  Climbing Atlanta Center
04:13PM 32.4817 -83.0636 176° South 268 308 26,000 -60 Level Atlanta Center
04:14PM 32.4086 -83.0572 176° South 268 308 25,900 -60 Descending Atlanta Center
04:15PM 32.3353 -83.0506 176° South 268 308 25,900  Level Atlanta Center
04:16PM 32.2622 -83.0442 176° South 273 314 25,900  Level Atlanta Center
04:18PM 32.0892 -83.0275 175° South 273 314 25,900  Level Jacksonville Center
04:19PM 32.0161 -83.0225 177° South 273 314 25,900  Level Jacksonville Center
04:20PM 31.9411 -83.0150 175° South 273 314 25,900  Level Jacksonville Center
04:21PM 31.8681 -83.0100 188° South 273 314 25,900  Level Jacksonville Center
04:22PM 31.8689 -83.0263 188° South  Level FlightAware Approximate
04:22PM 31.7947 -83.0025 175° South 273 314 26,000  Level Jacksonville Center
04:23PM 31.7217 -83.0097 185° South 273 314 26,000  Level Jacksonville Center
04:24PM 31.6425 -83.0244 189° South 273 314 26,000 -60 Level Jacksonville Center
04:25PM 31.5672 -83.0414 191° South 273 314 25,900 -60 Descending Jacksonville Center
04:26PM 31.4942 -83.0558 190° South 273 314 25,900  Level Jacksonville Center
04:27PM 31.4231 -83.0703 190° South 273 314 25,900  Level Jacksonville Center
04:28PM 31.3522 -83.0847 190° South 273 314 25,900  Level Jacksonville Center
04:29PM 31.2769 -83.1017 191° South 273 314 26,000 -300 Climbing Jacksonville Center
04:30PM 31.2058 -83.0794 165° South 268 308 25,400 -540 Descending Jacksonville Center
04:31PM 31.1331 -83.0456 158° South 273 314 25,000 -240 Descending Jacksonville Center
04:32PM 31.0619 -83.0139 159° South 279 321 25,000  Level Jacksonville Center
04:33PM 30.9911 -82.9822 159° South 279 321 25,000  Level Jacksonville Center
04:34PM 30.9242 -82.9531 160° South 268 308 25,000  Level Jacksonville Center
04:35PM 30.8617 -82.9264 160° South 268 308 25,000  Level Jacksonville Center
04:36PM 30.7906 -82.8950 159° South 268 308 25,000  Level Jacksonville Center
04:37PM 30.7239 -82.8636 158° South 268 308 25,000  Level Jacksonville Center
04:38PM 30.6528 -82.8322 159° South 268 308 25,000 -360 Level Jacksonville Center
04:39PM 30.5817 -82.8008 159° South 268 308 24,300 -540 Descending Jacksonville Center
04:40PM 30.5025 -82.7625 157° South 273 314 24,000 -180 Descending Jacksonville Center
04:41PM 30.4314 -82.7286 158° South 273 314 24,000 -60 Level Jacksonville Center
04:42PM 30.3603 -82.6975 159° South 273 314 23,900 -600 Descending Jacksonville Center
04:43PM 30.2872 -82.6642 158° South 273 314 22,900 -660 Descending Jacksonville Center
04:44PM 30.2183 -82.6378 162° South 278 320 22,600 -600 Descending Jacksonville Center
04:45PM 30.1450 -82.6067 160° South 283 326 21,800 -780 Descending Jacksonville Center
04:46PM 30.0719 -82.5733 158° South 288 331 21,100 -420 Descending Jacksonville Center
04:47PM 29.9925 -82.5378 159° South 288 331 21,000 -60 Descending Jacksonville Center
04:48PM 29.9256 -82.5067 158° South 278 320 21,000  Level Jacksonville Center
04:49PM 29.8589 -82.4878 166° South 266 306 21,000  Level Jacksonville Center
04:50PM 29.7878 -82.4714 169° South 261 300 21,000  Level Jacksonville Center
04:51PM 29.7272 -82.4597 171° South 256 295 21,000  Level Jacksonville Center
04:52PM 29.6561 -82.4456 170° South 256 295 21,000 -180 Level Jacksonville Center
04:53PM 29.5831 -82.4292 169° South 261 300 20,700 -840 Descending Jacksonville Center
04:54PM 29.5014 -82.4153 172° South 275 316 19,400 -4,860 Descending Jacksonville Center
04:55PM 29.4242 -82.3989 170° South 289 333 11,000 -1,200 Descending Jacksonville Center
04:56PM 29.3489 -82.3828 169° South 284 327 17,000 2,400 Climbing Jacksonville Center
04:57PM 29.2739 -82.3664 169° South 279 321 15,800 -1,200 Descending Jacksonville Center
04:58PM 29.1986 -82.3525 171° South 274 315 14,600 -1,200 Descending Jacksonville Center
04:59PM 29.1256 -82.3364 169° South 274 315 13,500 -1,020 Descending Jacksonville Center
05:00PM 29.0564 -82.3225 170° South 269 310 12,600 -840 Descending Jacksonville Center
05:01PM 28.9897 -82.3086 170° South 263 303 11,900 -840 Descending Jacksonville Center
05:02PM 28.9228 -82.2972 172° South 257 296 11,000 -540 Descending Jacksonville Center
05:03PM 28.8600 -82.2808 167° South 252 290 10,900  Descending Jacksonville Center
05:06PM 28.7164 -82.2583 172° South 239 275 11,000  Climbing Miami Center
05:07PM 28.6500 -82.2500 174° South 246 283 11,000 -480 Level Tampa TRACON
05:08PM 28.5833 -82.2833 204° Southwest 273 314 10,200 -780 Descending Tampa TRACON
05:09PM 28.5500 -82.3500 240° Southwest 247 284 9,500 -780 Descending Tampa TRACON
05:10PM 28.5000 -82.4167 230° Southwest 239 275 8,600 -1,020 Descending Tampa TRACON
05:11PM 28.4667 -82.4833 240° Southwest 256 295 7,500 -900 Descending Tampa TRACON
05:12PM 28.4167 -82.5500 230° Southwest 234 269 6,800 -1,020 Descending Tampa TRACON
05:13PM 28.3833 -82.6000 233° Southwest 223 257 5,600 -1,020 Descending Tampa TRACON
05:14PM 28.3500 -82.6500 233° Southwest 240 276 4,900 -420 Descending Tampa TRACON
05:14PM 28.3167 -82.7000 233° Southwest 208 239 4,900 -60 Level Tampa TRACON
05:16PM 28.2833 -82.7667 240° Southwest 208 239 4,800 -480 Descending Tampa TRACON
05:17PM 28.2333 -82.8333 230° Southwest 232 267 3,900 -720 Descending Tampa TRACON
05:18PM 28.1833 -82.8333 180° South 219 252 3,500 -480 Descending Tampa TRACON
05:19PM 28.1333 -82.8500 196° South 208 239 3,000 -300 Descending Tampa TRACON
05:20PM 28.0667 -82.8500 180° South 198 228 2,900 -60 Descending Tampa TRACON
05:21PM 28.0167 -82.8333 164° South 169 194 2,900  Level Tampa TRACON
05:21PM 27.9833 -82.8167 156° South 154 177 2,900  Level Tampa TRACON
05:23PM 27.9333 -82.8167 180° South 145 167 3,000  Climbing Tampa TRACON
05:23PM 27.9000 -82.8000 156° South 136 157 2,900 -300 Descending Tampa TRACON
05:24PM 27.8667 -82.7833 156° South 144 166 2,500 -480 Descending Tampa TRACON
05:26PM 27.8167 -82.7667 164° South 180 207 1,900 -300 Descending Tampa TRACON
05:27PM 27.7833 -82.7500 156° South 152 175 1,900  Level Tampa TRACON
05:28PM 27.7500 -82.7167 138° Southeast 146 168 1,900  Level Tampa TRACON
05:28PM 27.7333 -82.6833 119° Southeast 138 159 1,900  Level Tampa TRACON
05:29PM 27.7500 -82.6667 42° Northeast 137 158 1,900  Level Tampa TRACON
05:31PM 27.8000 -82.6667 360° North 136 157 1,900 -300 Level Tampa TRACON
05:31PM 27.8333 -82.6833 336° Northwest 144 166 1,400 -660 Descending Tampa TRACON
05:32PM 27.8667 -82.6833 360° North 143 165 700 -720 Descending Tampa TRACON